Terminal Aerodrome Forecast
Issued by NWS

Home | Current Version | Previous Version | Text Only | Print | Product List | Glossary Off
Versions: 1 2 3 4 5 6 7 8 9 10 11 12 13 14 15

000
FTUS43 KBIS 152335
TAFMOT
TAF
KMOT 152335Z 1600/1624 28014KT P6SM SKC
     FM160200 24007KT P6SM SKC
     FM160600 20006KT P6SM SKC
     FM161200 21009KT P6SM SCT250 WS020/26030KT
     FM161700 25014G22KT P6SM SCT250
     FM162200 27011KT P6SM SCT250=

USA.gov is the U.S. government's official web portal to all federal, state and local government web resources and services.